Plainfield, IA (50666)

3:20 PM CST on February 09, 2016 (GMT -0600)
Wartburg College Observatory | | Change Station
CLOSE
Current Station
Personal Weather Station
Location: Waverly, IA
Elevation: 928 ft
Nearby Weather Stations

Elev 928 ft 42.73 °N, 92.49 °W | Updated 8 seconds ago

Clear
Clear
12.5 °F
Feels Like -6 °F
N
20.7
Wind Variable Wind from NNW
Gusts 20.7 mph

Today
High -- | Low -- °F
--% Chance of Precip.
Yesterday
High -- | Low -- °F
Precip. -- in
Pressure 30.04 in
Visibility 10.0 miles
Clouds Scattered Clouds 1500 ft
Scattered Clouds 2100 ft
Windchill -6 °F
Dew Point 6 °F
Humidity 75%
Rainfall 0.00 in
Snow Depth Not available.
7:16 AM 5:33 PM
New Moon, 2% visible
METAR KCCY 092055Z AUTO 32021KT 10SM SCT015 SCT021 M11/M16 A3004 RMK AO2
Pressure 30.04 in
Visibility 10.0 miles
Clouds Scattered Clouds 1500 ft
Scattered Clouds 2100 ft
Windchill -6 °F
Dew Point 6 °F
Humidity 75%
Rainfall 0.00 in
Snow Depth Not available.
7:16 AM 5:33 PM
New Moon, 2% visible
METAR KCCY 092055Z AUTO 32021KT 10SM SCT015 SCT021 M11/M16 A3004 RMK AO2

10-Day Weather Forecast

Almanac

Astronomy

Feb. 09, 2016 Rise Set
Actual Time
Civil Twilight
Nautical Twilight
Astronomical Twilight
Moon
Length of Visible Light
Length of Day
Tomorrow will be .
, % of the Moon is Illuminated

Today's Extremes

State Highs State Lows

Community

WunderPhotos

Upload Photos

1,891,705 photos uploaded!

WunderBlog® & News

Nearby

Air Quality

  Air Quality AQ Index Pollutant
Not available.

Snow Depth

Station Depth Elevation

Earthquake Activity

City Distance Mag. Time & Date
Minimum magnitude displayed is 2.5.

Coastal Water Temperatures

Place Temperature

Stations

Nearby Weather Stations

Station Location Temp. Windchill Dew Point Humidity Wind Precip. Elev Updated Type
                   

Watches & Warnings

There are currently no watches in effect.